createdAt,value
2017-06-04T00:00:41.727Z,27.66
2017-06-04T00:01:42.008Z,27.67
2017-06-04T00:02:41.798Z,27.69
2017-06-04T00:03:41.511Z,27.69
2017-06-04T00:04:41.852Z,27.7
2017-06-04T00:05:41.572Z,27.62
2017-06-04T00:06:41.290Z,27.65
2017-06-04T00:07:41.622Z,27.66
2017-06-04T00:08:41.967Z,27.66
2017-06-04T00:09:41.995Z,27.65
2017-06-04T00:10:41.716Z,27.63
2017-06-04T00:11:41.745Z,27.66
2017-06-04T00:12:42.094Z,27.65
2017-06-04T00:13:41.811Z,27.65
2017-06-04T00:14:42.155Z,27.67
2017-06-04T00:15:42.175Z,27.69
2017-06-04T00:16:42.217Z,27.66
2017-06-04T00:17:42.241Z,27.63
2017-06-04T00:18:42.270Z,27.67
2017-06-04T00:19:41.988Z,27.67
2017-06-04T00:20:42.334Z,27.65
2017-06-04T00:21:42.363Z,27.72
2017-06-04T00:22:42.390Z,27.59
2017-06-04T00:23:42.110Z,27.63
2017-06-04T00:24:42.145Z,27.63
2017-06-04T00:25:42.164Z,27.69
2017-06-04T00:26:42.511Z,27.55
2017-06-04T00:27:42.533Z,27.55
2017-06-04T00:28:42.259Z,27.6
2017-06-04T00:29:42.596Z,27.63
2017-06-04T00:30:42.317Z,27.6
2017-06-04T00:31:42.661Z,27.59
2017-06-04T00:32:42.690Z,27.57
2017-06-04T00:33:42.399Z,27.59
2017-06-04T00:34:42.747Z,27.6
2017-06-04T00:35:42.776Z,27.59
2017-06-04T00:36:42.520Z,27.57
2017-06-04T00:37:42.839Z,27.62
2017-06-04T00:38:42.878Z,27.49
2017-06-04T00:39:42.901Z,27.5
2017-06-04T00:40:42.925Z,27.5
2017-06-04T00:41:42.645Z,27.47
2017-06-04T00:42:42.991Z,27.47
2017-06-04T00:43:42.708Z,27.5
2017-06-04T00:44:43.044Z,27.59
2017-06-04T00:45:43.079Z,27.51
2017-06-04T00:46:43.110Z,27.54
2017-06-04T00:47:42.826Z,27.46
2017-06-04T00:48:42.855Z,27.55
2017-06-04T00:49:42.887Z,27.5
2017-06-04T00:50:43.237Z,27.51
2017-06-04T00:51:42.938Z,27.44
2017-06-04T00:52:42.687Z,27.49
2017-06-04T00:53:43.316Z,27.47
2017-06-04T00:54:43.347Z,27.5
2017-06-04T00:55:43.377Z,27.5
2017-06-04T00:56:43.094Z,27.51
2017-06-04T00:57:43.434Z,27.44
2017-06-04T00:58:43.487Z,27.5
2017-06-04T00:59:43.494Z,27.5
2017-06-04T01:00:43.522Z,27.51
2017-06-04T01:01:43.550Z,27.5
2017-06-04T01:02:43.587Z,27.5
2017-06-04T01:03:43.299Z,27.46
2017-06-04T01:04:43.644Z,27.6
2017-06-04T01:05:43.397Z,27.55
2017-06-04T01:06:43.389Z,27.55
2017-06-04T01:07:43.983Z,27.44
2017-06-04T01:08:43.759Z,27.43
2017-06-04T01:09:43.797Z,27.51
2017-06-04T01:10:43.832Z,27.46
2017-06-04T01:11:43.853Z,27.43
2017-06-04T01:12:43.502Z,27.49
2017-06-04T01:13:43.916Z,27.47
2017-06-04T01:14:43.632Z,27.46
2017-06-04T01:15:43.973Z,27.5
2017-06-04T01:16:44.002Z,27.54
2017-06-04T01:17:44.284Z,27.46
2017-06-04T01:18:44.059Z,27.51
2017-06-04T01:19:43.815Z,27.5
2017-06-04T01:20:44.122Z,27.49
2017-06-04T01:21:44.159Z,27.44
2017-06-04T01:22:44.070Z,27.46
2017-06-04T01:23:44.216Z,27.39
2017-06-04T01:24:44.244Z,27.36
2017-06-04T01:25:43.962Z,27.41
2017-06-04T01:26:43.986Z,27.34
2017-06-04T01:27:44.583Z,27.37
2017-06-04T01:28:44.364Z,27.34
2017-06-04T01:29:44.393Z,27.36
2017-06-04T01:30:44.422Z,27.34
2017-06-04T01:31:44.454Z,27.4
2017-06-04T01:32:44.734Z,27.4
2017-06-04T01:33:44.507Z,27.39
2017-06-04T01:34:44.553Z,27.39
2017-06-04T01:35:44.568Z,27.4
2017-06-04T01:36:44.290Z,27.39
2017-06-04T01:37:44.514Z,27.34
2017-06-04T01:38:44.662Z,27.32
2017-06-04T01:39:44.366Z,27.25
2017-06-04T01:40:44.717Z,27.29
2017-06-04T01:41:44.754Z,27.31
2017-06-04T01:42:44.723Z,27.32
2017-06-04T01:43:44.807Z,27.28
2017-06-04T01:44:44.861Z,27.21
2017-06-04T01:45:44.869Z,27.29
2017-06-04T01:46:44.898Z,27.27
2017-06-04T01:47:44.503Z,27.27
2017-06-04T01:48:44.332Z,27.27
2017-06-04T01:49:44.989Z,27.32
2017-06-04T01:50:45.015Z,27.29
2017-06-04T01:51:44.730Z,27.32
2017-06-04T01:52:45.327Z,27.29
2017-06-04T01:53:44.795Z,27.32
2017-06-04T01:54:44.821Z,27.28
2017-06-04T01:55:45.169Z,27.17
2017-06-04T01:56:44.879Z,27.28
2017-06-04T01:57:45.170Z,27.32
2017-06-04T01:58:44.964Z,27.27
2017-06-04T01:59:45.277Z,27.27
2017-06-04T02:00:44.690Z,27.24
2017-06-04T02:01:45.343Z,27.22
2017-06-04T02:02:45.312Z,27.24
2017-06-04T02:03:45.096Z,27.21
2017-06-04T02:04:45.125Z,27.19
2017-06-04T02:05:45.467Z,27.27
2017-06-04T02:06:45.487Z,27.28
2017-06-04T02:07:45.771Z,27.24
2017-06-04T02:08:45.564Z,27.17
2017-06-04T02:09:45.577Z,27.21
2017-06-04T02:10:45.602Z,27.21
2017-06-04T02:11:45.638Z,27.1
2017-06-04T02:12:45.870Z,27.17
2017-06-04T02:13:45.377Z,27.12
2017-06-04T02:14:45.417Z,27.13
2017-06-04T02:15:45.749Z,27.18
2017-06-04T02:16:45.474Z,27.1
2017-06-04T02:17:45.447Z,27.09
2017-06-04T02:18:45.537Z,27.12
2017-06-04T02:19:45.878Z,27.1
2017-06-04T02:20:45.602Z,27.07
2017-06-04T02:21:45.937Z,27.14
2017-06-04T02:22:45.908Z,27.1
2017-06-04T02:23:46.030Z,27.17
2017-06-04T02:24:46.018Z,27.19
2017-06-04T02:25:45.738Z,27.12
2017-06-04T02:26:46.082Z,27.13
2017-06-04T02:27:46.314Z,27.21
2017-06-04T02:28:45.832Z,27.07
2017-06-04T02:29:45.857Z,27.18
2017-06-04T02:30:45.889Z,27.1
2017-06-04T02:31:46.239Z,27.1
2017-06-04T02:32:46.514Z,27.04
2017-06-04T02:33:45.980Z,26.97
2017-06-04T02:34:46.010Z,26.95
2017-06-04T02:35:46.042Z,27.09
2017-06-04T02:36:46.075Z,27
2017-06-04T02:37:46.346Z,27
2017-06-04T02:38:46.437Z,26.99
2017-06-04T02:39:46.152Z,27.03
2017-06-04T02:40:45.873Z,27.06
2017-06-04T02:41:46.531Z,27.03
2017-06-04T02:42:46.808Z,27.02
2017-06-04T02:43:46.277Z,26.95
2017-06-04T02:44:46.306Z,26.97
2017-06-04T02:45:46.654Z,26.89
2017-06-04T02:46:46.679Z,26.97
2017-06-04T02:47:46.908Z,26.95
2017-06-04T02:48:46.728Z,26.94
2017-06-04T02:49:46.445Z,27.03
2017-06-04T02:50:46.485Z,26.99
2017-06-04T02:51:46.511Z,26.97
2017-06-04T02:52:46.792Z,26.94
2017-06-04T02:53:46.573Z,26.97
2017-06-04T02:54:46.912Z,26.92
2017-06-04T02:55:46.942Z,26.92
2017-06-04T02:56:46.655Z,26.85
2017-06-04T02:57:47.203Z,26.92
2017-06-04T02:58:46.713Z,26.94
2017-06-04T02:59:46.749Z,26.87
2017-06-04T03:00:47.089Z,26.81
2017-06-04T03:01:47.119Z,26.85
2017-06-04T03:02:47.412Z,26.88
2017-06-04T03:03:46.864Z,26.89
2017-06-04T03:04:47.208Z,26.85
2017-06-04T03:05:46.611Z,26.8
2017-06-04T03:06:46.955Z,26.8
2017-06-04T03:07:47.236Z,26.84
2017-06-04T03:08:47.328Z,26.77
2017-06-04T03:09:47.365Z,26.91
2017-06-04T03:10:46.765Z,26.77
2017-06-04T03:11:47.424Z,26.75
2017-06-04T03:12:47.383Z,26.82
2017-06-04T03:13:47.469Z,26.81
2017-06-04T03:14:47.527Z,26.76
2017-06-04T03:15:47.534Z,26.87
2017-06-04T03:16:47.560Z,26.81
2017-06-04T03:17:47.796Z,26.81
2017-06-04T03:18:47.618Z,26.8
2017-06-04T03:19:47.650Z,26.8
2017-06-04T03:20:47.678Z,26.76
2017-06-04T03:21:47.391Z,26.82
2017-06-04T03:22:47.424Z,26.84
2017-06-04T03:23:47.773Z,26.76
2017-06-04T03:24:47.805Z,26.82
2017-06-04T03:25:47.828Z,26.77
2017-06-04T03:26:47.539Z,26.82
2017-06-04T03:27:47.892Z,26.8
2017-06-04T03:28:47.633Z,26.8
2017-06-04T03:29:47.633Z,26.81
2017-06-04T03:30:47.975Z,26.76
2017-06-04T03:31:48.008Z,26.81
2017-06-04T03:32:48.032Z,26.8
2017-06-04T03:33:47.757Z,26.8
2017-06-04T03:34:47.820Z,26.84
2017-06-04T03:35:48.117Z,26.81
2017-06-04T03:36:47.844Z,26.81
2017-06-04T03:37:47.876Z,26.8
2017-06-04T03:38:48.213Z,26.81
2017-06-04T03:39:48.237Z,26.84
2017-06-04T03:40:47.951Z,26.82
2017-06-04T03:41:48.299Z,26.8
2017-06-04T03:42:48.327Z,26.8
2017-06-04T03:43:48.041Z,26.72
2017-06-04T03:44:48.070Z,26.73
2017-06-04T03:45:48.415Z,26.75
2017-06-04T03:46:48.456Z,26.67
2017-06-04T03:47:48.164Z,26.67
2017-06-04T03:48:48.197Z,26.66
2017-06-04T03:49:48.217Z,26.67
2017-06-04T03:50:48.570Z,26.67
2017-06-04T03:51:48.284Z,26.66
2017-06-04T03:52:48.312Z,26.73
2017-06-04T03:53:48.341Z,26.75
2017-06-04T03:54:48.686Z,26.76
2017-06-04T03:55:48.407Z,26.7
2017-06-04T03:56:48.432Z,26.75
2017-06-04T03:57:48.776Z,26.65
2017-06-04T03:58:48.173Z,26.8
2017-06-04T03:59:48.829Z,26.72
2017-06-04T04:00:48.890Z,26.76
2017-06-04T04:01:48.572Z,26.76
2017-06-04T04:02:48.917Z,26.63
2017-06-04T04:03:48.949Z,26.69
2017-06-04T04:04:48.984Z,26.77
2017-06-04T04:05:48.698Z,26.75
2017-06-04T04:06:49.034Z,26.69
2017-06-04T04:07:49.064Z,26.8
2017-06-04T04:08:48.781Z,26.67
2017-06-04T04:09:49.126Z,26.8
2017-06-04T04:10:49.155Z,26.76
2017-06-04T04:11:49.183Z,26.73
2017-06-04T04:12:48.888Z,26.7
2017-06-04T04:13:49.241Z,26.69
2017-06-04T04:14:49.269Z,26.73
2017-06-04T04:15:49.295Z,26.7
2017-06-04T04:16:49.328Z,26.77
2017-06-04T04:17:49.048Z,26.76
2017-06-04T04:18:48.765Z,26.69
2017-06-04T04:19:49.418Z,26.72
2017-06-04T04:20:49.447Z,26.72
2017-06-04T04:21:49.471Z,26.62
2017-06-04T04:22:49.505Z,26.6
2017-06-04T04:23:49.537Z,26.7
2017-06-04T04:24:49.566Z,26.6
2017-06-04T04:25:49.595Z,26.73
2017-06-04T04:26:49.619Z,26.6
2017-06-04T04:27:49.341Z,26.66
2017-06-04T04:28:49.301Z,26.66
2017-06-04T04:29:49.386Z,26.72
2017-06-04T04:30:49.739Z,26.65
2017-06-04T04:31:49.799Z,26.67
2017-06-04T04:32:49.795Z,26.62
2017-06-04T04:33:49.760Z,26.65
2017-06-04T04:34:49.227Z,26.69
2017-06-04T04:35:49.260Z,26.62
2017-06-04T04:36:49.925Z,26.65
2017-06-04T04:37:49.977Z,26.65
2017-06-04T04:38:50.177Z,26.67
2017-06-04T04:39:50.014Z,26.65
2017-06-04T04:40:50.035Z,26.54
2017-06-04T04:41:49.752Z,26.67
2017-06-04T04:42:50.093Z,26.57
2017-06-04T04:43:50.369Z,26.55
2017-06-04T04:44:50.150Z,26.55
2017-06-04T04:45:50.184Z,26.57
2017-06-04T04:46:49.896Z,26.65
2017-06-04T04:47:50.240Z,26.62
2017-06-04T04:48:50.209Z,26.54
2017-06-04T04:49:50.290Z,26.57
2017-06-04T04:50:50.331Z,26.62
2017-06-04T04:51:50.352Z,26.52
2017-06-04T04:52:50.083Z,26.62
2017-06-04T04:53:50.666Z,26.55
2017-06-04T04:54:50.430Z,26.52
2017-06-04T04:55:50.475Z,26.62
2017-06-04T04:56:50.189Z,26.57
2017-06-04T04:57:50.524Z,26.54
2017-06-04T04:58:50.762Z,26.57
2017-06-04T04:59:50.591Z,26.48
2017-06-04T05:00:50.623Z,26.6
2017-06-04T05:01:50.652Z,26.58
2017-06-04T05:02:50.672Z,26.58
2017-06-04T05:03:50.958Z,26.55
2017-06-04T05:04:50.739Z,26.65
2017-06-04T05:05:50.455Z,26.52
2017-06-04T05:06:50.480Z,26.6
2017-06-04T05:07:50.829Z,26.48
2017-06-04T05:08:51.105Z,26.62
2017-06-04T05:09:50.886Z,26.5
2017-06-04T05:10:50.915Z,26.57
2017-06-04T05:11:50.633Z,26.54
2017-06-04T05:12:50.662Z,26.54
2017-06-04T05:13:51.249Z,26.55
2017-06-04T05:14:51.030Z,26.52
2017-06-04T05:15:51.064Z,26.51
2017-06-04T05:16:50.784Z,26.55
2017-06-04T05:17:51.121Z,26.44
2017-06-04T05:18:51.405Z,26.43
2017-06-04T05:19:51.203Z,26.48
2017-06-04T05:20:50.890Z,26.45
2017-06-04T05:21:50.931Z,26.43
2017-06-04T05:22:51.265Z,26.47
2017-06-04T05:23:51.229Z,26.43
2017-06-04T05:24:51.323Z,26.44
2017-06-04T05:25:51.355Z,26.47
2017-06-04T05:26:50.751Z,26.54
2017-06-04T05:27:51.101Z,26.48
2017-06-04T05:28:51.694Z,26.52
2017-06-04T05:29:51.469Z,26.47
2017-06-04T05:30:50.875Z,26.48
2017-06-04T05:31:51.528Z,26.47
2017-06-04T05:32:51.562Z,26.51
2017-06-04T05:33:51.522Z,26.4
2017-06-04T05:34:51.611Z,26.51
2017-06-04T05:35:51.643Z,26.44
2017-06-04T05:36:51.676Z,26.52
2017-06-04T05:37:51.706Z,26.43
2017-06-04T05:38:51.961Z,26.44
2017-06-04T05:39:51.763Z,26.45
2017-06-04T05:40:51.475Z,26.44
2017-06-04T05:41:51.512Z,26.44
2017-06-04T05:42:51.537Z,26.48
2017-06-04T05:43:51.845Z,26.52
2017-06-04T05:44:51.598Z,26.44
2017-06-04T05:45:51.623Z,26.43
2017-06-04T05:46:51.336Z,26.39
2017-06-04T05:47:51.684Z,26.39
2017-06-04T05:48:52.277Z,26.36
2017-06-04T05:49:52.054Z,26.39
2017-06-04T05:50:51.780Z,26.4
2017-06-04T05:51:52.128Z,26.43
2017-06-04T05:52:52.156Z,26.39
2017-06-04T05:53:52.425Z,26.39
2017-06-04T05:54:52.197Z,26.39
2017-06-04T05:55:52.227Z,26.37
2017-06-04T05:56:52.268Z,26.39
2017-06-04T05:57:51.981Z,26.29
2017-06-04T05:58:52.256Z,26.35
2017-06-04T05:59:52.346Z,26.43
2017-06-04T06:00:52.371Z,26.33
2017-06-04T06:01:52.408Z,26.33
2017-06-04T06:02:52.433Z,26.37
2017-06-04T06:03:52.355Z,26.3
2017-06-04T06:04:52.179Z,26.33
2017-06-04T06:05:52.527Z,26.33
2017-06-04T06:06:52.235Z,26.32
2017-06-04T06:07:52.586Z,26.39
2017-06-04T06:08:52.809Z,26.4
2017-06-04T06:09:52.643Z,26.33
2017-06-04T06:10:52.669Z,26.29
2017-06-04T06:11:52.700Z,26.32
2017-06-04T06:12:52.729Z,26.32
2017-06-04T06:13:53.009Z,26.29
2017-06-04T06:14:52.787Z,26.35
2017-06-04T06:15:52.502Z,26.29
2017-06-04T06:16:52.530Z,26.33
2017-06-04T06:17:52.559Z,26.32
2017-06-04T06:18:53.098Z,26.35
2017-06-04T06:19:52.935Z,26.28
2017-06-04T06:20:52.652Z,26.28
2017-06-04T06:21:52.997Z,26.29
2017-06-04T06:22:52.394Z,26.29
2017-06-04T06:23:53.244Z,26.3
2017-06-04T06:24:53.109Z,26.28
2017-06-04T06:25:53.103Z,26.28
2017-06-04T06:26:53.140Z,26.33
2017-06-04T06:27:53.165Z,26.32
2017-06-04T06:28:52.594Z,26.28
2017-06-04T06:29:53.231Z,26.29
2017-06-04T06:30:52.936Z,26.26
2017-06-04T06:31:53.275Z,26.32
2017-06-04T06:32:52.997Z,26.3
2017-06-04T06:33:53.346Z,26.23
2017-06-04T06:34:53.370Z,26.26
2017-06-04T06:35:53.400Z,26.28
2017-06-04T06:36:53.416Z,26.28
2017-06-04T06:37:53.457Z,26.28
2017-06-04T06:38:53.486Z,26.28
2017-06-04T06:39:53.538Z,26.32
2017-06-04T06:40:53.236Z,26.25
2017-06-04T06:41:53.261Z,26.25
2017-06-04T06:42:53.604Z,26.23
2017-06-04T06:43:53.633Z,26.29
2017-06-04T06:44:53.339Z,26.25
2017-06-04T06:45:53.683Z,26.2
2017-06-04T06:46:53.409Z,26.23
2017-06-04T06:47:53.749Z,26.2
2017-06-04T06:48:53.779Z,26.18
2017-06-04T06:49:53.806Z,26.09
2017-06-04T06:50:53.831Z,26.26
2017-06-04T06:51:53.891Z,26.13
2017-06-04T06:52:53.893Z,26.12
2017-06-04T06:53:53.916Z,26.21
2017-06-04T06:54:53.631Z,26.23
2017-06-04T06:55:53.669Z,26.15
2017-06-04T06:56:54.012Z,26.1
2017-06-04T06:57:53.733Z,26.15
2017-06-04T06:58:54.068Z,26.1
2017-06-04T06:59:54.094Z,26.1
2017-06-04T07:00:53.819Z,26.1
2017-06-04T07:01:54.148Z,26.09
2017-06-04T07:02:54.185Z,26.09
2017-06-04T07:03:54.207Z,26.13
2017-06-04T07:04:53.926Z,26.09
2017-06-04T07:05:54.279Z,26.07
2017-06-04T07:06:53.987Z,26.15
2017-06-04T07:07:54.017Z,26.13
2017-06-04T07:08:54.354Z,26.13
2017-06-04T07:09:54.383Z,26.13
2017-06-04T07:10:53.778Z,26.1
2017-06-04T07:11:54.141Z,26.13
2017-06-04T07:12:54.473Z,26.01
2017-06-04T07:13:54.495Z,26.02
2017-06-04T07:14:54.223Z,26.02
2017-06-04T07:15:54.559Z,26.01
2017-06-04T07:16:53.957Z,26.05
2017-06-04T07:17:54.308Z,26.02
2017-06-04T07:18:54.642Z,26.09
2017-06-04T07:19:54.680Z,26.06
2017-06-04T07:20:54.391Z,26.09
2017-06-04T07:21:54.760Z,26.02
2017-06-04T07:22:54.757Z,25.92
2017-06-04T07:23:54.794Z,26.06
2017-06-04T07:24:54.824Z,26.06
2017-06-04T07:25:54.847Z,25.99
2017-06-04T07:26:54.879Z,26.01
2017-06-04T07:27:54.909Z,26.1
2017-06-04T07:28:54.618Z,26.01
2017-06-04T07:29:54.983Z,26.02
2017-06-04T07:30:54.688Z,25.99
2017-06-04T07:31:55.028Z,25.87
2017-06-04T07:32:55.070Z,26.06
2017-06-04T07:33:54.770Z,25.92
2017-06-04T07:34:55.118Z,25.9
2017-06-04T07:35:55.139Z,25.91
2017-06-04T07:36:54.860Z,25.85
2017-06-04T07:37:55.197Z,25.95
2017-06-04T07:38:54.914Z,25.88
2017-06-04T07:39:55.259Z,25.92
2017-06-04T07:40:55.283Z,25.91
2017-06-04T07:41:55.312Z,25.9
2017-06-04T07:42:55.332Z,25.92
2017-06-04T07:43:55.050Z,25.92
2017-06-04T07:44:55.402Z,25.9
2017-06-04T07:45:55.118Z,25.91
2017-06-04T07:46:55.141Z,25.91
2017-06-04T07:47:55.489Z,25.87
2017-06-04T07:48:55.208Z,25.9
2017-06-04T07:49:55.238Z,25.88
2017-06-04T07:50:54.960Z,25.91
2017-06-04T07:51:55.595Z,25.85
2017-06-04T07:52:55.321Z,25.83
2017-06-04T07:53:55.042Z,25.77
2017-06-04T07:54:55.946Z,25.75
2017-06-04T07:55:55.724Z,25.77
2017-06-04T07:56:55.752Z,25.8
2017-06-04T07:57:55.781Z,25.82
2017-06-04T07:58:55.809Z,25.8
2017-06-04T07:59:56.042Z,25.82
2017-06-04T08:00:55.863Z,25.76
2017-06-04T08:01:55.905Z,25.76
2017-06-04T08:02:55.925Z,25.76
2017-06-04T08:03:55.646Z,25.7
2017-06-04T08:04:56.191Z,25.77
2017-06-04T08:05:55.691Z,25.73
2017-06-04T08:06:55.729Z,25.75
2017-06-04T08:07:56.064Z,25.7
2017-06-04T08:08:56.099Z,25.73
2017-06-04T08:09:56.379Z,25.75
2017-06-04T08:10:56.155Z,25.69
2017-06-04T08:11:55.562Z,25.7
2017-06-04T08:12:56.214Z,25.69
2017-06-04T08:13:55.617Z,25.7
2017-06-04T08:14:56.466Z,25.7
2017-06-04T08:15:56.304Z,25.7
2017-06-04T08:16:56.020Z,25.67
2017-06-04T08:17:56.041Z,25.67
2017-06-04T08:18:56.380Z,25.65
2017-06-04T08:19:56.617Z,25.64
2017-06-04T08:20:56.445Z,25.64
2017-06-04T08:21:56.469Z,25.62
2017-06-04T08:22:56.497Z,25.64
2017-06-04T08:23:56.530Z,25.67
2017-06-04T08:24:56.808Z,25.67
2017-06-04T08:25:56.272Z,25.65
2017-06-04T08:26:56.616Z,25.58
2017-06-04T08:27:56.645Z,25.64
2017-06-04T08:28:56.674Z,25.69
2017-06-04T08:29:56.590Z,25.64
2017-06-04T08:30:56.464Z,25.62
2017-06-04T08:31:56.751Z,25.65
2017-06-04T08:32:56.157Z,25.67
2017-06-04T08:33:56.818Z,25.67
2017-06-04T08:34:57.102Z,25.72
2017-06-04T08:35:56.876Z,25.73
2017-06-04T08:36:56.901Z,25.72
2017-06-04T08:37:56.933Z,25.72
2017-06-04T08:38:56.646Z,25.76
2017-06-04T08:39:57.023Z,25.73
2017-06-04T08:40:57.020Z,25.79
2017-06-04T08:41:57.047Z,25.72
2017-06-04T08:42:56.777Z,25.82
2017-06-04T08:43:56.795Z,25.76
2017-06-04T08:44:57.335Z,25.82
2017-06-04T08:45:56.859Z,25.82
2017-06-04T08:46:56.569Z,25.8
2017-06-04T08:47:56.916Z,25.82
2017-06-04T08:48:57.251Z,25.77
2017-06-04T08:49:57.482Z,25.75
2017-06-04T08:50:57.319Z,25.77
2017-06-04T08:51:57.033Z,25.77
2017-06-04T08:52:57.041Z,25.82
2017-06-04T08:53:57.387Z,25.75
2017-06-04T08:54:57.679Z,25.75
2017-06-04T08:55:57.466Z,25.83
2017-06-04T08:56:56.860Z,25.79
2017-06-04T08:57:57.198Z,25.8
2017-06-04T08:58:57.550Z,25.9
2017-06-04T08:59:57.766Z,25.87
2017-06-04T09:00:57.591Z,25.83
2017-06-04T09:01:57.317Z,25.79
2017-06-04T09:02:57.331Z,25.85
2017-06-04T09:03:57.357Z,25.85
2017-06-04T09:04:57.079Z,25.92
2017-06-04T09:05:57.427Z,25.92
2017-06-04T09:06:57.773Z,25.9
2017-06-04T09:07:57.798Z,25.95
2017-06-04T09:08:57.507Z,25.97
2017-06-04T09:09:57.224Z,26.02
2017-06-04T09:10:57.880Z,25.99
2017-06-04T09:11:57.284Z,25.9
2017-06-04T09:12:57.630Z,25.97
2017-06-04T09:13:57.659Z,26.05
2017-06-04T09:14:57.996Z,25.95
2017-06-04T09:15:58.021Z,25.99
2017-06-04T09:16:58.050Z,26.05
2017-06-04T09:17:58.083Z,26.01
2017-06-04T09:18:58.118Z,25.99
2017-06-04T09:19:58.144Z,26.07
2017-06-04T09:20:58.172Z,26.06
2017-06-04T09:21:57.873Z,25.98
2017-06-04T09:22:57.918Z,26.05
2017-06-04T09:23:58.260Z,26.07
2017-06-04T09:24:58.284Z,26.06
2017-06-04T09:25:58.316Z,25.99
2017-06-04T09:26:58.412Z,26.05
2017-06-04T09:27:57.750Z,26.1
2017-06-04T09:28:58.082Z,26.1
2017-06-04T09:29:58.440Z,26.01
2017-06-04T09:30:58.148Z,26.09
2017-06-04T09:31:58.489Z,26.12
2017-06-04T09:32:58.526Z,26.13
2017-06-04T09:33:58.235Z,26.05
2017-06-04T09:34:58.264Z,26.1
2017-06-04T09:35:58.605Z,26.1
2017-06-04T09:36:58.321Z,26.07
2017-06-04T09:37:58.347Z,26.09
2017-06-04T09:38:58.691Z,26.09
2017-06-04T09:39:58.728Z,26.09
2017-06-04T09:40:58.752Z,26.12
2017-06-04T09:41:58.466Z,26.13
2017-06-04T09:42:58.500Z,26.07
2017-06-04T09:43:58.838Z,26.06
2017-06-04T09:44:58.859Z,26.15
2017-06-04T09:45:58.776Z,26.13
2017-06-04T09:46:58.926Z,26.1
2017-06-04T09:47:58.643Z,26.1
2017-06-04T09:48:58.684Z,26.1
2017-06-04T09:49:58.384Z,26.09
2017-06-04T09:50:59.230Z,26.12
2017-06-04T09:51:58.758Z,26.12
2017-06-04T09:52:58.785Z,26.12
2017-06-04T09:53:59.123Z,26.1
2017-06-04T09:54:58.847Z,26.1
2017-06-04T09:55:59.072Z,26.1
2017-06-04T09:56:59.217Z,26.07
2017-06-04T09:57:59.238Z,26.1
2017-06-04T09:58:59.263Z,26.07
2017-06-04T09:59:59.300Z,26.13
2017-06-04T10:00:59.560Z,26.1
2017-06-04T10:01:59.358Z,26.13
2017-06-04T10:02:59.386Z,26.21
2017-06-04T10:03:59.402Z,26.1
2017-06-04T10:04:58.825Z,26.1
2017-06-04T10:05:59.416Z,26.12
2017-06-04T10:06:59.193Z,26.09
2017-06-04T10:07:59.535Z,26.09
2017-06-04T10:08:59.567Z,26.17
2017-06-04T10:09:59.596Z,26.17
2017-06-04T10:10:59.866Z,26.26
2017-06-04T10:11:59.658Z,26.15
2017-06-04T10:12:59.679Z,26.13
2017-06-04T10:13:59.714Z,26.17
2017-06-04T10:14:59.744Z,26.12
2017-06-04T10:15:59.657Z,26.13
2017-06-04T10:16:59.794Z,26.12
2017-06-04T10:17:59.511Z,26.13
2017-06-04T10:18:59.548Z,26.15
2017-06-04T10:19:59.885Z,26.18
2017-06-04T10:20:59.486Z,26.15
2017-06-04T10:21:59.943Z,26.15
2017-06-04T10:22:59.655Z,26.2
2017-06-04T10:23:59.995Z,26.15
2017-06-04T10:25:00.032Z,26.13
2017-06-04T10:26:00.258Z,26.17
2017-06-04T10:27:00.091Z,26.2
2017-06-04T10:27:59.491Z,26.21
2017-06-04T10:29:00.142Z,26.12
2017-06-04T10:30:00.165Z,26.21
2017-06-04T10:31:00.402Z,26.13
2017-06-04T10:32:00.230Z,26.18
2017-06-04T10:33:00.271Z,26.15
2017-06-04T10:33:59.976Z,26.21
2017-06-04T10:35:00.317Z,26.2
2017-06-04T10:36:00.541Z,26.25
2017-06-04T10:36:59.747Z,26.25
2017-06-04T10:38:00.091Z,26.23
2017-06-04T10:39:00.440Z,26.28
2017-06-04T10:40:00.162Z,26.23
2017-06-04T10:41:00.381Z,26.29
2017-06-04T10:42:00.206Z,26.25
2017-06-04T10:43:00.551Z,26.29
2017-06-04T10:44:00.580Z,26.29
2017-06-04T10:45:00.296Z,26.32
2017-06-04T10:46:00.833Z,26.29
2017-06-04T10:47:00.664Z,26.28
2017-06-04T10:48:00.696Z,26.29
2017-06-04T10:49:00.399Z,26.33
2017-06-04T10:50:00.745Z,26.32
2017-06-04T10:51:00.863Z,26.3
2017-06-04T10:52:00.814Z,26.32
2017-06-04T10:53:00.542Z,26.21
2017-06-04T10:54:00.456Z,26.28
2017-06-04T10:55:00.771Z,26.3
2017-06-04T10:56:01.174Z,26.28
2017-06-04T10:57:01.262Z,26.32
2017-06-04T10:58:00.914Z,26.3
2017-06-04T10:59:00.974Z,26.36
2017-06-04T11:00:00.830Z,26.32
2017-06-04T11:01:01.351Z,26.29
2017-06-04T11:02:01.105Z,26.3
2017-06-04T11:03:01.135Z,26.3
2017-06-04T11:04:01.164Z,26.33
2017-06-04T11:05:00.593Z,26.33
2017-06-04T11:06:01.114Z,26.33
2017-06-04T11:07:00.939Z,26.35
2017-06-04T11:08:01.279Z,26.37
2017-06-04T11:09:00.984Z,26.33
2017-06-04T11:10:01.336Z,26.35
2017-06-04T11:11:01.560Z,26.33
2017-06-04T11:12:01.083Z,26.39
2017-06-04T11:13:01.114Z,26.37
2017-06-04T11:14:01.140Z,26.35
2017-06-04T11:15:01.488Z,26.39
2017-06-04T11:16:01.401Z,26.44
2017-06-04T11:17:01.237Z,26.33
2017-06-04T11:18:01.564Z,26.39
2017-06-04T11:19:01.289Z,26.43
2017-06-04T11:20:01.626Z,26.37
2017-06-04T11:21:01.544Z,26.37
2017-06-04T11:22:01.685Z,26.43
2017-06-04T11:23:01.399Z,26.37
2017-06-04T11:24:01.752Z,26.4
2017-06-04T11:25:01.777Z,26.44
2017-06-04T11:26:01.693Z,26.44
2017-06-04T11:27:01.831Z,26.45
2017-06-04T11:28:01.237Z,26.43
2017-06-04T11:29:01.582Z,26.47
2017-06-04T11:30:01.922Z,26.43
2017-06-04T11:31:02.202Z,26.5
2017-06-04T11:32:01.975Z,26.52
2017-06-04T11:33:02.009Z,26.51
2017-06-04T11:34:02.048Z,26.44
2017-06-04T11:35:02.070Z,26.54
2017-06-04T11:36:02.304Z,26.47
2017-06-04T11:37:01.810Z,26.44
2017-06-04T11:38:01.841Z,26.47
2017-06-04T11:39:01.873Z,26.5
2017-06-04T11:40:01.898Z,26.45
2017-06-04T11:41:02.444Z,26.51
2017-06-04T11:42:02.271Z,26.55
2017-06-04T11:43:02.301Z,26.6
2017-06-04T11:44:02.022Z,26.54
2017-06-04T11:45:02.358Z,26.52
2017-06-04T11:46:01.988Z,26.67
2017-06-04T11:47:02.111Z,26.67
2017-06-04T11:48:02.444Z,26.65
2017-06-04T11:49:02.473Z,26.8
2017-06-04T11:50:02.510Z,26.75
2017-06-04T11:51:02.741Z,26.73
2017-06-04T11:52:01.936Z,26.73
2017-06-04T11:53:02.596Z,26.76
2017-06-04T11:54:02.621Z,26.84
2017-06-04T11:55:02.338Z,26.87
2017-06-04T11:56:02.566Z,26.92
2017-06-04T11:57:02.712Z,26.84
2017-06-04T11:58:02.743Z,26.89
2017-06-04T11:59:02.769Z,26.94
2017-06-04T12:00:02.802Z,26.99
2017-06-04T12:01:03.029Z,27.02
2017-06-04T12:02:02.865Z,27
2017-06-04T12:03:02.572Z,27
2017-06-04T12:04:02.625Z,27.1
2017-06-04T12:05:02.954Z,27.09
2017-06-04T12:06:03.178Z,27.1
2017-06-04T12:07:03.012Z,27.29
2017-06-04T12:08:03.040Z,27.21
2017-06-04T12:09:03.067Z,27.21
2017-06-04T12:10:03.122Z,27.32
2017-06-04T12:11:03.590Z,27.24
2017-06-04T12:12:02.844Z,27.31
2017-06-04T12:13:03.177Z,27.31
2017-06-04T12:14:03.218Z,27.27
2017-06-04T12:15:03.243Z,27.36
2017-06-04T12:16:03.484Z,27.29
2017-06-04T12:17:03.001Z,27.37
2017-06-04T12:18:03.381Z,27.37
2017-06-04T12:19:03.045Z,27.47
2017-06-04T12:20:02.767Z,27.49
2017-06-04T12:21:03.628Z,27.5
2017-06-04T12:22:03.464Z,27.51
2017-06-04T12:23:03.189Z,27.55
2017-06-04T12:24:03.517Z,27.54
2017-06-04T12:25:03.550Z,27.63
2017-06-04T12:26:03.783Z,27.59
2017-06-04T12:27:03.294Z,27.7
2017-06-04T12:28:03.334Z,27.59
2017-06-04T12:29:03.358Z,27.57
2017-06-04T12:30:03.382Z,27.62
2017-06-04T12:31:03.411Z,27.59
2017-06-04T12:32:03.132Z,27.59
2017-06-04T12:33:03.790Z,27.5
2017-06-04T12:34:03.505Z,27.51
2017-06-04T12:35:03.862Z,27.57
2017-06-04T12:36:03.566Z,27.47
2017-06-04T12:37:03.920Z,27.47
2017-06-04T12:38:03.938Z,27.37
2017-06-04T12:39:03.966Z,27.44
2017-06-04T12:40:03.688Z,27.39
2017-06-04T12:41:03.707Z,27.31
2017-06-04T12:42:04.062Z,27.36
2017-06-04T12:43:03.781Z,27.34
2017-06-04T12:44:04.127Z,27.22
2017-06-04T12:45:03.835Z,27.22
2017-06-04T12:46:04.166Z,27.29
2017-06-04T12:47:03.896Z,27.28
2017-06-04T12:48:03.925Z,27.27
2017-06-04T12:49:04.269Z,27.24
2017-06-04T12:50:03.981Z,27.29
2017-06-04T12:51:04.327Z,27.31
2017-06-04T12:52:04.357Z,27.28
2017-06-04T12:53:04.385Z,27.32
2017-06-04T12:54:04.418Z,27.29
2017-06-04T12:55:03.822Z,27.28
2017-06-04T12:56:04.476Z,27.28
2017-06-04T12:57:04.504Z,27.32